sensor_id;sensor_type;location;lat;lon;timestamp;P1;durP1;ratioP1;P2;durP2;ratioP2
21837;SDS011;11081;45.946;6.140;2023-10-13T00:00:41;11.05;;;2.53;;
21837;SDS011;11081;45.946;6.140;2023-10-13T00:03:09;7.65;;;2.25;;
21837;SDS011;11081;45.946;6.140;2023-10-13T00:05:44;6.55;;;2.20;;
21837;SDS011;11081;45.946;6.140;2023-10-13T00:08:12;7.75;;;2.25;;
21837;SDS011;11081;45.946;6.140;2023-10-13T00:10:40;8.13;;;2.30;;
21837;SDS011;11081;45.946;6.140;2023-10-13T00:13:09;7.60;;;2.38;;
21837;SDS011;11081;45.946;6.140;2023-10-13T00:15:39;6.93;;;2.15;;
21837;SDS011;11081;45.946;6.140;2023-10-13T00:18:12;8.48;;;2.70;;
21837;SDS011;11081;45.946;6.140;2023-10-13T00:20:41;8.45;;;2.30;;
21837;SDS011;11081;45.946;6.140;2023-10-13T00:23:16;7.82;;;2.60;;
21837;SDS011;11081;45.946;6.140;2023-10-13T00:25:48;7.85;;;2.10;;
21837;SDS011;11081;45.946;6.140;2023-10-13T00:28:23;8.88;;;2.15;;
21837;SDS011;11081;45.946;6.140;2023-10-13T00:30:54;5.68;;;2.30;;
21837;SDS011;11081;45.946;6.140;2023-10-13T00:33:27;7.97;;;2.10;;
21837;SDS011;11081;45.946;6.140;2023-10-13T00:35:58;6.00;;;2.22;;
21837;SDS011;11081;45.946;6.140;2023-10-13T00:38:29;6.65;;;1.90;;
21837;SDS011;11081;45.946;6.140;2023-10-13T00:40:57;6.35;;;2.30;;
21837;SDS011;11081;45.946;6.140;2023-10-13T00:43:30;8.02;;;2.25;;
21837;SDS011;11081;45.946;6.140;2023-10-13T00:46:01;8.27;;;2.05;;
21837;SDS011;11081;45.946;6.140;2023-10-13T00:48:40;4.57;;;1.67;;
21837;SDS011;11081;45.946;6.140;2023-10-13T00:51:10;3.45;;;2.10;;
21837;SDS011;11081;45.946;6.140;2023-10-13T00:54:00;10.85;;;2.53;;
21837;SDS011;11081;45.946;6.140;2023-10-13T00:56:32;4.82;;;2.33;;
21837;SDS011;11081;45.946;6.140;2023-10-13T00:59:07;5.75;;;1.92;;
21837;SDS011;11081;45.946;6.140;2023-10-13T01:01:36;5.60;;;2.00;;
21837;SDS011;11081;45.946;6.140;2023-10-13T01:04:07;5.07;;;1.88;;
21837;SDS011;11081;45.946;6.140;2023-10-13T01:06:35;4.72;;;2.03;;
21837;SDS011;11081;45.946;6.140;2023-10-13T01:09:06;9.13;;;2.15;;
21837;SDS011;11081;45.946;6.140;2023-10-13T01:11:41;7.03;;;1.83;;
21837;SDS011;11081;45.946;6.140;2023-10-13T01:14:11;7.78;;;2.28;;
21837;SDS011;11081;45.946;6.140;2023-10-13T01:16:38;6.05;;;1.98;;
21837;SDS011;11081;45.946;6.140;2023-10-13T01:19:10;10.80;;;2.50;;
21837;SDS011;11081;45.946;6.140;2023-10-13T01:21:39;6.07;;;2.20;;
21837;SDS011;11081;45.946;6.140;2023-10-13T01:24:09;7.00;;;2.30;;
21837;SDS011;11081;45.946;6.140;2023-10-13T01:26:38;6.03;;;1.90;;
21837;SDS011;11081;45.946;6.140;2023-10-13T01:29:06;7.38;;;2.22;;
21837;SDS011;11081;45.946;6.140;2023-10-13T01:31:41;5.82;;;1.83;;
21837;SDS011;11081;45.946;6.140;2023-10-13T01:34:14;10.32;;;2.20;;
21837;SDS011;11081;45.946;6.140;2023-10-13T01:36:48;6.13;;;2.20;;
21837;SDS011;11081;45.946;6.140;2023-10-13T01:39:19;11.13;;;3.20;;
21837;SDS011;11081;45.946;6.140;2023-10-13T01:41:48;6.55;;;2.25;;
21837;SDS011;11081;45.946;6.140;2023-10-13T01:44:22;6.97;;;2.22;;
21837;SDS011;11081;45.946;6.140;2023-10-13T01:46:49;6.10;;;2.58;;
21837;SDS011;11081;45.946;6.140;2023-10-13T01:49:18;6.88;;;2.40;;
21837;SDS011;11081;45.946;6.140;2023-10-13T01:51:48;4.55;;;1.88;;
21837;SDS011;11081;45.946;6.140;2023-10-13T01:54:16;7.40;;;2.35;;
21837;SDS011;11081;45.946;6.140;2023-10-13T01:56:47;5.65;;;2.33;;
21837;SDS011;11081;45.946;6.140;2023-10-13T01:59:16;5.28;;;2.10;;
21837;SDS011;11081;45.946;6.140;2023-10-13T02:01:44;4.45;;;2.00;;
21837;SDS011;11081;45.946;6.140;2023-10-13T02:04:12;6.97;;;2.30;;
21837;SDS011;11081;45.946;6.140;2023-10-13T02:06:41;5.88;;;2.33;;
21837;SDS011;11081;45.946;6.140;2023-10-13T02:09:09;6.03;;;2.63;;
21837;SDS011;11081;45.946;6.140;2023-10-13T02:11:41;6.85;;;2.50;;
21837;SDS011;11081;45.946;6.140;2023-10-13T02:14:12;5.57;;;2.03;;
21837;SDS011;11081;45.946;6.140;2023-10-13T02:16:43;7.13;;;1.85;;
21837;SDS011;11081;45.946;6.140;2023-10-13T02:19:13;4.45;;;2.08;;
21837;SDS011;11081;45.946;6.140;2023-10-13T02:21:44;7.50;;;2.00;;
21837;SDS011;11081;45.946;6.140;2023-10-13T02:24:13;5.32;;;2.10;;
21837;SDS011;11081;45.946;6.140;2023-10-13T02:26:46;5.50;;;2.30;;
21837;SDS011;11081;45.946;6.140;2023-10-13T02:29:13;5.25;;;2.50;;
21837;SDS011;11081;45.946;6.140;2023-10-13T02:31:44;8.50;;;2.13;;
21837;SDS011;11081;45.946;6.140;2023-10-13T02:34:21;5.90;;;1.88;;
21837;SDS011;11081;45.946;6.140;2023-10-13T02:36:50;6.03;;;1.80;;
21837;SDS011;11081;45.946;6.140;2023-10-13T02:39:17;7.22;;;2.13;;
21837;SDS011;11081;45.946;6.140;2023-10-13T02:41:54;8.65;;;1.95;;
21837;SDS011;11081;45.946;6.140;2023-10-13T02:44:22;6.30;;;2.50;;
21837;SDS011;11081;45.946;6.140;2023-10-13T02:46:57;6.53;;;2.22;;
21837;SDS011;11081;45.946;6.140;2023-10-13T02:49:25;5.28;;;2.33;;
21837;SDS011;11081;45.946;6.140;2023-10-13T02:51:58;7.28;;;1.92;;
21837;SDS011;11081;45.946;6.140;2023-10-13T02:54:26;5.80;;;2.03;;
21837;SDS011;11081;45.946;6.140;2023-10-13T02:56:59;7.70;;;2.40;;
21837;SDS011;11081;45.946;6.140;2023-10-13T02:59:30;4.72;;;1.90;;
21837;SDS011;11081;45.946;6.140;2023-10-13T03:02:06;6.13;;;2.20;;
21837;SDS011;11081;45.946;6.140;2023-10-13T03:04:44;4.82;;;1.85;;
21837;SDS011;11081;45.946;6.140;2023-10-13T03:07:14;5.97;;;2.05;;
21837;SDS011;11081;45.946;6.140;2023-10-13T03:09:42;6.72;;;2.30;;
21837;SDS011;11081;45.946;6.140;2023-10-13T03:12:19;7.18;;;2.20;;
21837;SDS011;11081;45.946;6.140;2023-10-13T03:14:46;4.50;;;1.90;;
21837;SDS011;11081;45.946;6.140;2023-10-13T03:17:15;5.47;;;2.28;;
21837;SDS011;11081;45.946;6.140;2023-10-13T03:19:44;7.35;;;1.98;;
21837;SDS011;11081;45.946;6.140;2023-10-13T03:22:17;9.23;;;2.10;;
21837;SDS011;11081;45.946;6.140;2023-10-13T03:24:45;7.00;;;2.22;;
21837;SDS011;11081;45.946;6.140;2023-10-13T03:27:14;6.15;;;2.05;;
21837;SDS011;11081;45.946;6.140;2023-10-13T03:29:46;7.93;;;2.00;;
21837;SDS011;11081;45.946;6.140;2023-10-13T03:32:15;7.13;;;2.10;;
21837;SDS011;11081;45.946;6.140;2023-10-13T03:34:43;6.28;;;1.98;;
21837;SDS011;11081;45.946;6.140;2023-10-13T03:37:21;7.93;;;2.60;;
21837;SDS011;11081;45.946;6.140;2023-10-13T03:40:04;5.95;;;2.08;;
21837;SDS011;11081;45.946;6.140;2023-10-13T03:42:55;8.38;;;2.33;;
21837;SDS011;11081;45.946;6.140;2023-10-13T03:45:32;3.80;;;2.08;;
21837;SDS011;11081;45.946;6.140;2023-10-13T03:48:05;7.55;;;2.13;;
21837;SDS011;11081;45.946;6.140;2023-10-13T03:50:36;7.05;;;2.35;;
21837;SDS011;11081;45.946;6.140;2023-10-13T03:53:12;4.35;;;2.38;;
21837;SDS011;11081;45.946;6.140;2023-10-13T03:55:40;9.80;;;2.40;;
21837;SDS011;11081;45.946;6.140;2023-10-13T03:58:14;6.47;;;2.20;;
21837;SDS011;11081;45.946;6.140;2023-10-13T04:00:44;6.60;;;2.30;;
21837;SDS011;11081;45.946;6.140;2023-10-13T04:03:13;9.30;;;2.53;;
21837;SDS011;11081;45.946;6.140;2023-10-13T04:05:44;10.23;;;2.55;;
21837;SDS011;11081;45.946;6.140;2023-10-13T04:08:27;7.07;;;2.33;;
21837;SDS011;11081;45.946;6.140;2023-10-13T04:11:15;8.50;;;2.22;;
21837;SDS011;11081;45.946;6.140;2023-10-13T04:14:00;13.85;;;2.00;;
21837;SDS011;11081;45.946;6.140;2023-10-13T04:16:47;7.53;;;2.30;;
21837;SDS011;11081;45.946;6.140;2023-10-13T04:19:21;7.05;;;1.95;;
21837;SDS011;11081;45.946;6.140;2023-10-13T04:21:51;4.57;;;2.00;;
21837;SDS011;11081;45.946;6.140;2023-10-13T04:24:26;4.03;;;1.95;;
21837;SDS011;11081;45.946;6.140;2023-10-13T04:27:20;8.30;;;2.05;;
21837;SDS011;11081;45.946;6.140;2023-10-13T04:30:07;5.05;;;2.22;;
21837;SDS011;11081;45.946;6.140;2023-10-13T04:32:38;4.32;;;2.50;;
21837;SDS011;11081;45.946;6.140;2023-10-13T04:35:13;6.18;;;2.22;;
21837;SDS011;11081;45.946;6.140;2023-10-13T04:37:44;5.80;;;1.75;;
21837;SDS011;11081;45.946;6.140;2023-10-13T04:40:17;7.25;;;2.35;;
21837;SDS011;11081;45.946;6.140;2023-10-13T04:42:51;5.50;;;1.88;;
21837;SDS011;11081;45.946;6.140;2023-10-13T04:45:24;11.32;;;2.33;;
21837;SDS011;11081;45.946;6.140;2023-10-13T04:48:14;5.38;;;1.90;;
21837;SDS011;11081;45.946;6.140;2023-10-13T04:50:59;4.88;;;2.00;;
21837;SDS011;11081;45.946;6.140;2023-10-13T04:53:41;6.72;;;2.17;;
21837;SDS011;11081;45.946;6.140;2023-10-13T04:56:23;8.68;;;2.38;;
21837;SDS011;11081;45.946;6.140;2023-10-13T04:59:05;6.03;;;1.50;;
21837;SDS011;11081;45.946;6.140;2023-10-13T05:02:02;3.10;;;1.80;;
21837;SDS011;11081;45.946;6.140;2023-10-13T05:04:49;4.28;;;1.90;;
21837;SDS011;11081;45.946;6.140;2023-10-13T05:07:35;4.63;;;1.73;;
21837;SDS011;11081;45.946;6.140;2023-10-13T05:10:21;6.43;;;2.28;;
21837;SDS011;11081;45.946;6.140;2023-10-13T05:13:06;6.55;;;1.98;;
21837;SDS011;11081;45.946;6.140;2023-10-13T05:15:51;6.95;;;2.20;;
21837;SDS011;11081;45.946;6.140;2023-10-13T05:18:37;4.55;;;1.77;;
21837;SDS011;11081;45.946;6.140;2023-10-13T05:21:24;5.57;;;2.15;;
21837;SDS011;11081;45.946;6.140;2023-10-13T05:24:10;3.55;;;1.73;;
21837;SDS011;11081;45.946;6.140;2023-10-13T05:26:55;4.05;;;1.92;;
21837;SDS011;11081;45.946;6.140;2023-10-13T05:29:40;4.85;;;2.00;;
21837;SDS011;11081;45.946;6.140;2023-10-13T05:32:27;4.68;;;2.00;;
21837;SDS011;11081;45.946;6.140;2023-10-13T05:35:12;5.20;;;2.28;;
21837;SDS011;11081;45.946;6.140;2023-10-13T05:38:00;4.50;;;2.22;;
21837;SDS011;11081;45.946;6.140;2023-10-13T05:40:51;7.22;;;2.05;;
21837;SDS011;11081;45.946;6.140;2023-10-13T05:43:37;6.18;;;2.30;;
21837;SDS011;11081;45.946;6.140;2023-10-13T05:46:22;7.32;;;2.50;;
21837;SDS011;11081;45.946;6.140;2023-10-13T05:49:08;11.02;;;2.65;;
21837;SDS011;11081;45.946;6.140;2023-10-13T05:51:53;7.00;;;1.85;;
21837;SDS011;11081;45.946;6.140;2023-10-13T05:54:26;6.32;;;2.28;;
21837;SDS011;11081;45.946;6.140;2023-10-13T05:57:11;7.03;;;2.30;;
21837;SDS011;11081;45.946;6.140;2023-10-13T05:59:56;8.07;;;2.00;;
21837;SDS011;11081;45.946;6.140;2023-10-13T06:02:42;5.18;;;1.98;;
21837;SDS011;11081;45.946;6.140;2023-10-13T06:05:36;5.10;;;1.83;;
21837;SDS011;11081;45.946;6.140;2023-10-13T06:08:23;12.88;;;2.35;;
21837;SDS011;11081;45.946;6.140;2023-10-13T06:11:09;6.80;;;2.22;;
21837;SDS011;11081;45.946;6.140;2023-10-13T06:13:55;8.30;;;2.17;;
21837;SDS011;11081;45.946;6.140;2023-10-13T06:16:40;6.22;;;2.05;;
21837;SDS011;11081;45.946;6.140;2023-10-13T06:19:26;9.27;;;2.15;;
21837;SDS011;11081;45.946;6.140;2023-10-13T06:22:11;6.10;;;2.20;;
21837;SDS011;11081;45.946;6.140;2023-10-13T06:24:57;3.75;;;1.70;;
21837;SDS011;11081;45.946;6.140;2023-10-13T06:27:44;8.25;;;2.10;;
21837;SDS011;11081;45.946;6.140;2023-10-13T06:30:30;7.60;;;2.33;;
21837;SDS011;11081;45.946;6.140;2023-10-13T06:32:59;7.97;;;2.10;;
21837;SDS011;11081;45.946;6.140;2023-10-13T06:35:27;6.07;;;2.03;;
21837;SDS011;11081;45.946;6.140;2023-10-13T06:37:58;7.45;;;1.98;;
21837;SDS011;11081;45.946;6.140;2023-10-13T06:40:27;3.65;;;1.70;;
21837;SDS011;11081;45.946;6.140;2023-10-13T06:43:02;6.30;;;2.45;;
21837;SDS011;11081;45.946;6.140;2023-10-13T06:45:44;6.07;;;2.10;;
21837;SDS011;11081;45.946;6.140;2023-10-13T06:48:17;5.82;;;1.88;;
21837;SDS011;11081;45.946;6.140;2023-10-13T06:50:49;6.00;;;2.00;;
21837;SDS011;11081;45.946;6.140;2023-10-13T06:53:18;4.00;;;2.10;;
21837;SDS011;11081;45.946;6.140;2023-10-13T06:55:46;6.00;;;2.08;;
21837;SDS011;11081;45.946;6.140;2023-10-13T06:58:17;4.70;;;2.00;;
21837;SDS011;11081;45.946;6.140;2023-10-13T07:00:51;8.13;;;2.22;;
21837;SDS011;11081;45.946;6.140;2023-10-13T07:03:22;4.88;;;1.98;;
21837;SDS011;11081;45.946;6.140;2023-10-13T07:05:51;7.03;;;2.20;;
21837;SDS011;11081;45.946;6.140;2023-10-13T07:08:20;6.47;;;2.22;;
21837;SDS011;11081;45.946;6.140;2023-10-13T07:10:48;5.05;;;2.40;;
21837;SDS011;11081;45.946;6.140;2023-10-13T07:13:20;4.65;;;2.03;;
21837;SDS011;11081;45.946;6.140;2023-10-13T07:15:48;6.38;;;1.80;;
21837;SDS011;11081;45.946;6.140;2023-10-13T07:18:17;8.60;;;2.20;;
21837;SDS011;11081;45.946;6.140;2023-10-13T07:20:49;8.88;;;2.83;;
21837;SDS011;11081;45.946;6.140;2023-10-13T07:23:17;7.65;;;2.10;;
21837;SDS011;11081;45.946;6.140;2023-10-13T07:25:56;11.15;;;2.85;;
21837;SDS011;11081;45.946;6.140;2023-10-13T07:28:31;5.95;;;1.98;;
21837;SDS011;11081;45.946;6.140;2023-10-13T07:31:02;4.28;;;2.42;;
21837;SDS011;11081;45.946;6.140;2023-10-13T07:33:39;11.85;;;2.90;;
21837;SDS011;11081;45.946;6.140;2023-10-13T07:36:09;6.88;;;2.65;;
21837;SDS011;11081;45.946;6.140;2023-10-13T07:38:51;5.38;;;2.45;;
21837;SDS011;11081;45.946;6.140;2023-10-13T07:41:48;6.50;;;2.08;;
21837;SDS011;11081;45.946;6.140;2023-10-13T07:44:22;9.68;;;2.67;;
21837;SDS011;11081;45.946;6.140;2023-10-13T07:46:55;11.25;;;3.08;;
21837;SDS011;11081;45.946;6.140;2023-10-13T07:51:58;9.55;;;2.55;;
21837;SDS011;11081;45.946;6.140;2023-10-13T07:54:41;13.57;;;3.03;;
21837;SDS011;11081;45.946;6.140;2023-10-13T07:57:14;15.38;;;3.17;;
21837;SDS011;11081;45.946;6.140;2023-10-13T07:59:43;8.45;;;3.03;;
21837;SDS011;11081;45.946;6.140;2023-10-13T08:02:17;8.57;;;2.53;;
21837;SDS011;11081;45.946;6.140;2023-10-13T08:04:59;16.40;;;2.97;;
21837;SDS011;11081;45.946;6.140;2023-10-13T08:07:28;6.80;;;2.85;;
21837;SDS011;11081;45.946;6.140;2023-10-13T08:09:57;16.52;;;2.70;;
21837;SDS011;11081;45.946;6.140;2023-10-13T08:12:25;12.35;;;2.90;;
21837;SDS011;11081;45.946;6.140;2023-10-13T08:14:55;9.57;;;2.75;;
21837;SDS011;11081;45.946;6.140;2023-10-13T08:17:39;10.23;;;2.95;;
21837;SDS011;11081;45.946;6.140;2023-10-13T08:20:11;11.07;;;3.05;;
21837;SDS011;11081;45.946;6.140;2023-10-13T08:22:39;8.35;;;2.97;;
21837;SDS011;11081;45.946;6.140;2023-10-13T08:25:13;8.02;;;2.58;;
21837;SDS011;11081;45.946;6.140;2023-10-13T08:28:12;9.38;;;2.75;;
21837;SDS011;11081;45.946;6.140;2023-10-13T08:31:18;8.15;;;2.42;;
21837;SDS011;11081;45.946;6.140;2023-10-13T08:33:49;9.20;;;2.83;;
21837;SDS011;11081;45.946;6.140;2023-10-13T08:36:17;6.63;;;2.40;;
21837;SDS011;11081;45.946;6.140;2023-10-13T08:38:54;8.02;;;2.70;;
21837;SDS011;11081;45.946;6.140;2023-10-13T08:41:22;10.48;;;2.97;;
21837;SDS011;11081;45.946;6.140;2023-10-13T08:44:03;8.45;;;2.53;;
21837;SDS011;11081;45.946;6.140;2023-10-13T08:46:37;12.15;;;3.20;;
21837;SDS011;11081;45.946;6.140;2023-10-13T08:49:32;8.45;;;2.67;;
21837;SDS011;11081;45.946;6.140;2023-10-13T08:52:09;7.65;;;2.20;;
21837;SDS011;11081;45.946;6.140;2023-10-13T08:54:52;12.05;;;2.75;;
21837;SDS011;11081;45.946;6.140;2023-10-13T08:57:51;6.78;;;2.50;;
21837;SDS011;11081;45.946;6.140;2023-10-13T09:00:20;8.30;;;2.53;;
21837;SDS011;11081;45.946;6.140;2023-10-13T09:02:56;7.15;;;2.50;;
21837;SDS011;11081;45.946;6.140;2023-10-13T09:05:48;5.50;;;2.45;;
21837;SDS011;11081;45.946;6.140;2023-10-13T09:08:28;12.00;;;3.03;;
21837;SDS011;11081;45.946;6.140;2023-10-13T09:11:12;6.95;;;2.30;;
21837;SDS011;11081;45.946;6.140;2023-10-13T09:13:39;7.35;;;3.00;;
21837;SDS011;11081;45.946;6.140;2023-10-13T09:16:14;13.13;;;3.40;;
21837;SDS011;11081;45.946;6.140;2023-10-13T09:19:10;6.57;;;2.60;;
21837;SDS011;11081;45.946;6.140;2023-10-13T09:21:41;8.20;;;2.85;;
21837;SDS011;11081;45.946;6.140;2023-10-13T09:24:21;7.10;;;3.25;;
21837;SDS011;11081;45.946;6.140;2023-10-13T09:26:54;6.70;;;2.75;;
21837;SDS011;11081;45.946;6.140;2023-10-13T09:29:22;11.30;;;3.05;;
21837;SDS011;11081;45.946;6.140;2023-10-13T09:32:01;9.40;;;3.42;;
21837;SDS011;11081;45.946;6.140;2023-10-13T09:34:32;13.75;;;3.00;;
21837;SDS011;11081;45.946;6.140;2023-10-13T09:37:07;8.82;;;3.10;;
21837;SDS011;11081;45.946;6.140;2023-10-13T09:39:37;5.88;;;2.50;;
21837;SDS011;11081;45.946;6.140;2023-10-13T09:42:11;8.18;;;2.42;;
21837;SDS011;11081;45.946;6.140;2023-10-13T09:44:43;8.23;;;2.90;;
21837;SDS011;11081;45.946;6.140;2023-10-13T09:47:20;7.05;;;2.70;;
21837;SDS011;11081;45.946;6.140;2023-10-13T09:49:59;5.75;;;2.70;;
21837;SDS011;11081;45.946;6.140;2023-10-13T09:52:40;5.43;;;2.20;;
21837;SDS011;11081;45.946;6.140;2023-10-13T09:55:17;5.20;;;3.03;;
21837;SDS011;11081;45.946;6.140;2023-10-13T09:57:53;8.68;;;2.55;;
21837;SDS011;11081;45.946;6.140;2023-10-13T10:00:27;9.98;;;3.03;;
21837;SDS011;11081;45.946;6.140;2023-10-13T10:03:16;8.55;;;3.10;;
21837;SDS011;11081;45.946;6.140;2023-10-13T10:06:03;5.10;;;2.65;;
21837;SDS011;11081;45.946;6.140;2023-10-13T10:08:33;15.80;;;3.20;;
21837;SDS011;11081;45.946;6.140;2023-10-13T10:11:18;10.80;;;3.20;;
21837;SDS011;11081;45.946;6.140;2023-10-13T10:13:57;7.85;;;2.85;;
21837;SDS011;11081;45.946;6.140;2023-10-13T10:16:40;10.55;;;2.95;;
21837;SDS011;11081;45.946;6.140;2023-10-13T10:19:16;9.38;;;3.17;;
21837;SDS011;11081;45.946;6.140;2023-10-13T10:21:46;6.22;;;2.70;;
21837;SDS011;11081;45.946;6.140;2023-10-13T10:24:15;7.00;;;2.60;;
21837;SDS011;11081;45.946;6.140;2023-10-13T10:26:52;7.47;;;2.78;;
21837;SDS011;11081;45.946;6.140;2023-10-13T10:29:20;10.02;;;3.22;;
21837;SDS011;11081;45.946;6.140;2023-10-13T10:31:48;12.65;;;2.78;;
21837;SDS011;11081;45.946;6.140;2023-10-13T10:34:18;14.25;;;3.42;;
21837;SDS011;11081;45.946;6.140;2023-10-13T10:36:53;13.48;;;3.30;;
21837;SDS011;11081;45.946;6.140;2023-10-13T10:39:32;6.70;;;2.67;;
21837;SDS011;11081;45.946;6.140;2023-10-13T10:42:11;7.35;;;2.85;;
21837;SDS011;11081;45.946;6.140;2023-10-13T10:44:45;6.35;;;2.65;;
21837;SDS011;11081;45.946;6.140;2023-10-13T10:47:14;7.03;;;2.88;;
21837;SDS011;11081;45.946;6.140;2023-10-13T10:49:57;15.13;;;3.10;;
21837;SDS011;11081;45.946;6.140;2023-10-13T10:52:28;13.93;;;3.15;;
21837;SDS011;11081;45.946;6.140;2023-10-13T10:55:03;11.32;;;3.13;;
21837;SDS011;11081;45.946;6.140;2023-10-13T10:57:34;10.52;;;3.17;;
21837;SDS011;11081;45.946;6.140;2023-10-13T11:00:05;8.45;;;3.63;;
21837;SDS011;11081;45.946;6.140;2023-10-13T11:02:39;7.60;;;2.63;;
21837;SDS011;11081;45.946;6.140;2023-10-13T11:05:07;6.25;;;2.72;;
21837;SDS011;11081;45.946;6.140;2023-10-13T11:07:44;13.57;;;3.10;;
21837;SDS011;11081;45.946;6.140;2023-10-13T11:10:16;8.20;;;2.92;;
21837;SDS011;11081;45.946;6.140;2023-10-13T11:12:54;5.82;;;2.97;;
21837;SDS011;11081;45.946;6.140;2023-10-13T11:15:22;8.68;;;3.13;;
21837;SDS011;11081;45.946;6.140;2023-10-13T11:18:00;7.65;;;2.92;;
21837;SDS011;11081;45.946;6.140;2023-10-13T11:20:32;7.20;;;3.22;;
21837;SDS011;11081;45.946;6.140;2023-10-13T11:23:14;9.55;;;2.80;;
21837;SDS011;11081;45.946;6.140;2023-10-13T11:25:42;8.18;;;3.13;;
21837;SDS011;11081;45.946;6.140;2023-10-13T11:28:11;9.85;;;3.13;;
21837;SDS011;11081;45.946;6.140;2023-10-13T11:30:47;6.90;;;3.05;;
21837;SDS011;11081;45.946;6.140;2023-10-13T11:33:17;10.13;;;3.13;;
21837;SDS011;11081;45.946;6.140;2023-10-13T11:35:50;9.60;;;2.80;;
21837;SDS011;11081;45.946;6.140;2023-10-13T11:38:26;11.15;;;3.70;;
21837;SDS011;11081;45.946;6.140;2023-10-13T11:41:01;8.57;;;3.17;;
21837;SDS011;11081;45.946;6.140;2023-10-13T11:43:39;14.43;;;3.25;;
21837;SDS011;11081;45.946;6.140;2023-10-13T11:46:20;10.07;;;3.33;;
21837;SDS011;11081;45.946;6.140;2023-10-13T11:49:08;8.90;;;3.22;;
21837;SDS011;11081;45.946;6.140;2023-10-13T11:51:45;8.75;;;3.10;;
21837;SDS011;11081;45.946;6.140;2023-10-13T11:54:16;9.80;;;3.40;;
21837;SDS011;11081;45.946;6.140;2023-10-13T11:56:45;8.32;;;3.22;;
21837;SDS011;11081;45.946;6.140;2023-10-13T11:59:14;10.60;;;3.33;;
21837;SDS011;11081;45.946;6.140;2023-10-13T12:01:47;9.88;;;3.05;;
21837;SDS011;11081;45.946;6.140;2023-10-13T12:04:34;8.07;;;3.42;;
21837;SDS011;11081;45.946;6.140;2023-10-13T12:07:10;7.05;;;3.47;;
21837;SDS011;11081;45.946;6.140;2023-10-13T12:09:50;11.88;;;4.28;;
21837;SDS011;11081;45.946;6.140;2023-10-13T12:12:33;7.20;;;3.30;;
21837;SDS011;11081;45.946;6.140;2023-10-13T12:15:07;9.40;;;3.60;;
21837;SDS011;11081;45.946;6.140;2023-10-13T12:17:52;15.85;;;3.60;;
21837;SDS011;11081;45.946;6.140;2023-10-13T12:20:26;8.57;;;3.60;;
21837;SDS011;11081;45.946;6.140;2023-10-13T12:23:00;6.85;;;3.50;;
21837;SDS011;11081;45.946;6.140;2023-10-13T12:25:43;12.95;;;4.13;;
21837;SDS011;11081;45.946;6.140;2023-10-13T12:28:33;5.82;;;3.45;;
21837;SDS011;11081;45.946;6.140;2023-10-13T12:31:07;10.68;;;3.70;;
21837;SDS011;11081;45.946;6.140;2023-10-13T12:33:38;9.95;;;4.13;;
21837;SDS011;11081;45.946;6.140;2023-10-13T12:36:08;9.85;;;4.07;;
21837;SDS011;11081;45.946;6.140;2023-10-13T12:38:42;7.28;;;3.55;;
21837;SDS011;11081;45.946;6.140;2023-10-13T12:41:34;9.23;;;4.10;;
21837;SDS011;11081;45.946;6.140;2023-10-13T12:44:20;8.55;;;3.63;;
21837;SDS011;11081;45.946;6.140;2023-10-13T12:47:05;7.47;;;3.70;;
21837;SDS011;11081;45.946;6.140;2023-10-13T12:49:51;8.70;;;4.25;;
21837;SDS011;11081;45.946;6.140;2023-10-13T12:52:26;8.68;;;3.97;;
21837;SDS011;11081;45.946;6.140;2023-10-13T12:54:59;7.55;;;4.32;;
21837;SDS011;11081;45.946;6.140;2023-10-13T12:57:35;8.05;;;4.07;;
21837;SDS011;11081;45.946;6.140;2023-10-13T13:00:10;6.95;;;3.95;;
21837;SDS011;11081;45.946;6.140;2023-10-13T13:02:56;11.82;;;4.50;;
21837;SDS011;11081;45.946;6.140;2023-10-13T13:05:24;8.32;;;4.28;;
21837;SDS011;11081;45.946;6.140;2023-10-13T13:07:56;9.57;;;4.63;;
21837;SDS011;11081;45.946;6.140;2023-10-13T13:10:24;13.15;;;4.40;;
21837;SDS011;11081;45.946;6.140;2023-10-13T13:13:06;10.80;;;3.90;;
21837;SDS011;11081;45.946;6.140;2023-10-13T13:15:35;9.40;;;4.78;;
21837;SDS011;11081;45.946;6.140;2023-10-13T13:18:03;10.05;;;4.55;;
21837;SDS011;11081;45.946;6.140;2023-10-13T13:20:38;10.52;;;4.30;;
21837;SDS011;11081;45.946;6.140;2023-10-13T13:23:19;9.75;;;4.57;;
21837;SDS011;11081;45.946;6.140;2023-10-13T13:25:48;10.27;;;4.20;;
21837;SDS011;11081;45.946;6.140;2023-10-13T13:28:17;11.15;;;4.45;;
21837;SDS011;11081;45.946;6.140;2023-10-13T13:30:45;13.35;;;4.53;;
21837;SDS011;11081;45.946;6.140;2023-10-13T13:33:17;9.23;;;4.35;;
21837;SDS011;11081;45.946;6.140;2023-10-13T13:35:53;10.85;;;4.28;;
21837;SDS011;11081;45.946;6.140;2023-10-13T13:38:21;6.93;;;4.35;;
21837;SDS011;11081;45.946;6.140;2023-10-13T13:40:54;8.93;;;4.28;;
21837;SDS011;11081;45.946;6.140;2023-10-13T13:43:23;8.05;;;4.93;;
21837;SDS011;11081;45.946;6.140;2023-10-13T13:46:18;11.75;;;4.25;;
21837;SDS011;11081;45.946;6.140;2023-10-13T13:48:51;7.90;;;4.70;;
21837;SDS011;11081;45.946;6.140;2023-10-13T13:51:25;8.40;;;5.63;;
21837;SDS011;11081;45.946;6.140;2023-10-13T13:53:54;11.40;;;4.78;;
21837;SDS011;11081;45.946;6.140;2023-10-13T13:56:23;10.55;;;4.53;;
21837;SDS011;11081;45.946;6.140;2023-10-13T13:58:55;9.98;;;4.53;;
21837;SDS011;11081;45.946;6.140;2023-10-13T14:01:23;7.22;;;4.60;;
21837;SDS011;11081;45.946;6.140;2023-10-13T14:03:52;9.30;;;4.82;;
21837;SDS011;11081;45.946;6.140;2023-10-13T14:06:24;8.77;;;4.63;;
21837;SDS011;11081;45.946;6.140;2023-10-13T14:08:54;9.13;;;4.43;;
21837;SDS011;11081;45.946;6.140;2023-10-13T14:11:23;10.60;;;4.85;;
21837;SDS011;11081;45.946;6.140;2023-10-13T14:14:12;8.68;;;5.15;;
21837;SDS011;11081;45.946;6.140;2023-10-13T14:16:55;12.18;;;4.50;;
21837;SDS011;11081;45.946;6.140;2023-10-13T14:19:30;18.05;;;5.20;;
21837;SDS011;11081;45.946;6.140;2023-10-13T14:21:58;8.93;;;5.13;;
21837;SDS011;11081;45.946;6.140;2023-10-13T14:24:33;10.00;;;4.82;;
21837;SDS011;11081;45.946;6.140;2023-10-13T14:27:09;7.82;;;5.18;;
21837;SDS011;11081;45.946;6.140;2023-10-13T14:29:43;11.63;;;5.00;;
21837;SDS011;11081;45.946;6.140;2023-10-13T14:32:12;9.40;;;4.88;;
21837;SDS011;11081;45.946;6.140;2023-10-13T14:34:42;13.20;;;4.68;;
21837;SDS011;11081;45.946;6.140;2023-10-13T14:37:12;12.23;;;5.00;;
21837;SDS011;11081;45.946;6.140;2023-10-13T14:39:40;10.85;;;5.40;;
21837;SDS011;11081;45.946;6.140;2023-10-13T14:42:09;10.48;;;5.35;;
21837;SDS011;11081;45.946;6.140;2023-10-13T14:44:37;13.73;;;5.40;;
21837;SDS011;11081;45.946;6.140;2023-10-13T14:47:07;12.50;;;5.68;;
21837;SDS011;11081;45.946;6.140;2023-10-13T14:49:36;8.15;;;5.45;;
21837;SDS011;11081;45.946;6.140;2023-10-13T14:52:04;10.05;;;5.50;;
21837;SDS011;11081;45.946;6.140;2023-10-13T14:54:32;13.20;;;5.63;;
21837;SDS011;11081;45.946;6.140;2023-10-13T14:57:00;9.65;;;5.25;;
21837;SDS011;11081;45.946;6.140;2023-10-13T14:59:28;7.18;;;5.40;;
21837;SDS011;11081;45.946;6.140;2023-10-13T15:02:00;11.55;;;5.03;;
21837;SDS011;11081;45.946;6.140;2023-10-13T15:04:31;10.27;;;4.95;;
21837;SDS011;11081;45.946;6.140;2023-10-13T15:07:00;10.93;;;5.22;;
21837;SDS011;11081;45.946;6.140;2023-10-13T15:09:29;8.90;;;5.32;;
21837;SDS011;11081;45.946;6.140;2023-10-13T15:11:57;12.85;;;5.70;;
21837;SDS011;11081;45.946;6.140;2023-10-13T15:14:26;10.75;;;5.47;;
21837;SDS011;11081;45.946;6.140;2023-10-13T15:16:54;10.07;;;5.20;;
21837;SDS011;11081;45.946;6.140;2023-10-13T15:19:27;12.73;;;5.00;;
21837;SDS011;11081;45.946;6.140;2023-10-13T15:21:58;9.07;;;4.85;;
21837;SDS011;11081;45.946;6.140;2023-10-13T15:24:26;7.00;;;4.70;;
21837;SDS011;11081;45.946;6.140;2023-10-13T15:26:58;12.68;;;5.25;;
21837;SDS011;11081;45.946;6.140;2023-10-13T15:29:29;13.80;;;5.30;;
21837;SDS011;11081;45.946;6.140;2023-10-13T15:32:03;12.18;;;5.35;;
21837;SDS011;11081;45.946;6.140;2023-10-13T15:34:49;12.55;;;6.18;;